Time;durP1;ratioP1;P1;durP2;ratioP2;P2;SDS_P1;SDS_P2;PMS_P1;PMS_P2;Temp;Humidity;BMP_temperature;BMP_pressure;BME280_temperature;BME280_humidity;BME280_pressure;Samples;Min_cycle;Max_cycle;Signal;HPM_P1;HPM_P2
2020/12/06 00:01:40;;;;;;;15.65;7.82;;;4.30;99.90;;;;;;5014452;28;20041;-71
2020/12/06 00:04:09;;;;;;;14.48;7.97;;;4.30;99.90;;;;;;5034951;28;20034;-71
2020/12/06 00:06:36;;;;;;;14.80;6.57;;;4.30;99.90;;;;;;5030045;28;20495;-71
2020/12/06 00:09:01;;;;;;;12.55;6.55;;;4.30;99.90;;;;;;5032646;28;20120;-71
2020/12/06 00:11:29;;;;;;;13.82;6.25;;;4.40;99.90;;;;;;5032112;28;20088;-71
2020/12/06 00:13:57;;;;;;;11.20;6.22;;;4.40;99.90;;;;;;5029168;28;20025;-71
2020/12/06 00:16:25;;;;;;;13.00;7.25;;;4.40;99.90;;;;;;5033143;28;20562;-71
2020/12/06 00:18:51;;;;;;;18.55;8.60;;;4.40;99.90;;;;;;5031516;28;20475;-71
2020/12/06 00:21:18;;;;;;;12.98;7.75;;;4.40;99.90;;;;;;5034773;28;20035;-71
2020/12/06 00:23:44;;;;;;;12.82;7.15;;;4.30;99.90;;;;;;5047105;28;20093;-71
2020/12/06 00:26:13;;;;;;;11.80;6.88;;;4.40;99.90;;;;;;5029551;28;20746;-71
2020/12/06 00:28:38;;;;;;;16.10;8.32;;;4.40;99.90;;;;;;5028646;28;21933;-71
2020/12/06 00:31:04;;;;;;;15.07;7.85;;;4.40;99.90;;;;;;5035403;28;20108;-72
2020/12/06 00:33:32;;;;;;;21.70;9.52;;;4.30;99.90;;;;;;5029640;28;20402;-71
2020/12/06 00:35:58;;;;;;;20.13;9.68;;;4.30;99.90;;;;;;5027520;28;20449;-71
2020/12/06 00:38:24;;;;;;;18.52;9.85;;;4.20;99.90;;;;;;5033945;28;20049;-71
2020/12/06 00:40:54;;;;;;;24.38;11.23;;;4.20;99.90;;;;;;5030950;28;20064;-71
2020/12/06 00:43:20;;;;;;;22.58;11.55;;;4.20;99.90;;;;;;5033414;28;20029;-71
2020/12/06 00:45:48;;;;;;;22.08;11.25;;;4.20;99.90;;;;;;5034363;28;20131;-71
2020/12/06 00:48:13;;;;;;;21.65;11.25;;;4.20;99.90;;;;;;5032251;28;20025;-71
2020/12/06 00:50:39;;;;;;;21.67;11.68;;;4.10;99.90;;;;;;5031133;28;20038;-70
2020/12/06 00:53:07;;;;;;;22.23;11.85;;;4.20;99.90;;;;;;5030948;28;20029;-71
2020/12/06 00:55:32;;;;;;;26.67;13.00;;;4.10;99.90;;;;;;5030933;28;20053;-71
2020/12/06 00:57:58;;;;;;;22.75;12.75;;;4.10;99.90;;;;;;5032203;28;20033;-71
2020/12/06 01:00:24;;;;;;;25.45;12.82;;;4.20;99.90;;;;;;5030855;28;20021;-71
2020/12/06 01:02:52;;;;;;;26.45;12.75;;;4.20;99.90;;;;;;5028770;28;20052;-71
2020/12/06 01:05:20;;;;;;;19.80;11.30;;;4.10;99.90;;;;;;5027630;28;20026;-71
2020/12/06 01:07:48;;;;;;;23.63;12.63;;;4.20;99.90;;;;;;5029033;28;20608;-71
2020/12/06 01:10:14;;;;;;;23.05;11.52;;;4.10;99.90;;;;;;5033512;28;20105;-71
2020/12/06 01:12:42;;;;;;;22.48;11.93;;;4.10;99.90;;;;;;5033167;28;20021;-71
2020/12/06 01:15:10;;;;;;;26.50;13.05;;;4.10;99.90;;;;;;5033531;28;20146;-71
2020/12/06 01:17:36;;;;;;;27.05;11.90;;;4.20;99.90;;;;;;5032037;28;20102;-71
2020/12/06 01:20:03;;;;;;;23.15;12.00;;;4.20;99.90;;;;;;5028886;28;20145;-71
2020/12/06 01:22:29;;;;;;;21.20;10.50;;;4.10;99.90;;;;;;5032282;28;20108;-71
2020/12/06 01:24:55;;;;;;;19.17;10.80;;;4.20;99.90;;;;;;5031027;28;20125;-71
2020/12/06 01:27:20;;;;;;;19.23;10.75;;;4.20;99.90;;;;;;5033520;28;20045;-71
2020/12/06 01:29:46;;;;;;;18.52;10.40;;;4.20;99.90;;;;;;5025862;28;20032;-71
2020/12/06 01:32:12;;;;;;;17.80;10.40;;;4.20;99.90;;;;;;5028310;28;20164;-71
2020/12/06 01:34:40;;;;;;;17.65;9.98;;;4.20;99.90;;;;;;5034573;28;20056;-71
2020/12/06 01:37:06;;;;;;;16.38;9.50;;;4.30;99.90;;;;;;5035610;28;20021;-71
2020/12/06 01:39:31;;;;;;;17.75;9.85;;;4.30;99.90;;;;;;5030458;28;20032;-71
2020/12/06 01:41:57;;;;;;;20.20;11.05;;;4.30;99.90;;;;;;5031362;28;20447;-71
2020/12/06 01:44:23;;;;;;;22.23;10.88;;;4.30;99.90;;;;;;5033094;28;20037;-71
2020/12/06 01:46:51;;;;;;;18.58;9.85;;;4.30;99.90;;;;;;5030159;28;20394;-71
2020/12/06 01:49:18;;;;;;;17.98;9.45;;;4.20;99.90;;;;;;5017346;28;20044;-71
2020/12/06 01:51:43;;;;;;;18.45;9.50;;;4.20;99.90;;;;;;5028468;28;20051;-71
2020/12/06 01:54:11;;;;;;;16.90;8.60;;;4.10;99.90;;;;;;5030997;28;20021;-71
2020/12/06 01:56:37;;;;;;;15.98;8.70;;;4.10;99.90;;;;;;5020677;28;20025;-71
2020/12/06 01:59:02;;;;;;;14.77;7.90;;;4.20;99.90;;;;;;5028205;28;20112;-71
2020/12/06 02:01:28;;;;;;;15.20;7.90;;;4.20;99.90;;;;;;5031765;28;20029;-71
2020/12/06 02:03:54;;;;;;;14.60;7.40;;;4.20;99.90;;;;;;5029931;28;20105;-71
2020/12/06 02:06:19;;;;;;;13.07;7.35;;;4.20;99.90;;;;;;5012954;28;20032;-71
2020/12/06 02:08:47;;;;;;;12.05;6.85;;;4.20;99.90;;;;;;5013893;28;20067;-71
2020/12/06 02:11:27;;;;;;;11.18;5.88;;;4.30;99.90;;;;;;5036832;28;20021;-71
2020/12/06 02:13:57;;;;;;;11.32;5.95;;;4.30;99.90;;;;;;5026459;28;20037;-71
2020/12/06 02:16:28;;;;;;;14.23;6.90;;;4.40;99.90;;;;;;5026189;28;20040;-71
2020/12/06 02:18:55;;;;;;;13.98;6.95;;;4.30;99.90;;;;;;5028386;28;20467;-71
2020/12/06 02:21:21;;;;;;;13.90;6.95;;;4.30;99.90;;;;;;5032183;28;20037;-71
2020/12/06 02:23:49;;;;;;;13.82;7.20;;;4.30;99.90;;;;;;5035823;28;20037;-71
2020/12/06 02:26:17;;;;;;;15.60;7.70;;;4.30;99.90;;;;;;5031800;28;20044;-71
2020/12/06 02:28:42;;;;;;;15.77;8.25;;;4.30;99.90;;;;;;5030305;28;20101;-71
2020/12/06 02:31:11;;;;;;;14.80;8.50;;;4.30;99.90;;;;;;5033371;28;20067;-71
2020/12/06 02:33:39;;;;;;;14.52;7.93;;;4.20;99.90;;;;;;5031424;28;20033;-71
2020/12/06 02:36:05;;;;;;;15.48;9.10;;;4.30;99.90;;;;;;5036431;28;20095;-71
2020/12/06 02:38:31;;;;;;;16.40;8.60;;;4.20;99.90;;;;;;5033184;28;20033;-71
2020/12/06 02:40:56;;;;;;;15.23;9.05;;;4.20;99.90;;;;;;5028779;28;20037;-71
2020/12/06 02:43:27;;;;;;;14.38;8.68;;;4.30;99.90;;;;;;5034910;28;20168;-72
2020/12/06 02:45:55;;;;;;;18.38;9.95;;;4.30;99.90;;;;;;5029587;28;20048;-71
2020/12/06 02:48:23;;;;;;;16.05;9.43;;;4.30;99.90;;;;;;5031694;28;20045;-71
2020/12/06 02:50:51;;;;;;;16.75;9.32;;;4.30;99.90;;;;;;5033125;28;20052;-71
2020/12/06 02:53:16;;;;;;;16.75;9.07;;;4.30;99.90;;;;;;5033374;28;20021;-71
2020/12/06 02:55:42;;;;;;;15.63;8.88;;;4.30;99.90;;;;;;5030689;28;20043;-71
2020/12/06 02:58:12;;;;;;;16.90;10.07;;;4.40;99.90;;;;;;5037568;28;20047;-71
2020/12/06 03:00:40;;;;;;;15.88;9.32;;;4.40;99.90;;;;;;5031650;28;20063;-71
2020/12/06 03:03:06;;;;;;;18.00;9.85;;;4.40;99.90;;;;;;5033634;28;20044;-71
2020/12/06 03:05:31;;;;;;;22.50;11.13;;;4.50;99.90;;;;;;5036293;28;20038;-71
2020/12/06 03:08:04;;;;;;;17.85;9.82;;;4.50;99.90;;;;;;5036445;28;20045;-71
2020/12/06 03:10:30;;;;;;;17.67;9.68;;;4.50;99.90;;;;;;5048098;28;20542;-71
2020/12/06 03:12:56;;;;;;;16.33;9.57;;;4.50;99.90;;;;;;5030861;28;20121;-71
2020/12/06 03:15:21;;;;;;;16.80;9.75;;;4.50;99.90;;;;;;5034965;28;20022;-71
2020/12/06 03:17:47;;;;;;;15.20;9.18;;;4.50;99.90;;;;;;5038167;28;20505;-71
2020/12/06 03:20:15;;;;;;;15.95;9.15;;;4.60;99.90;;;;;;5032915;28;20030;-71
2020/12/06 03:22:43;;;;;;;14.15;8.20;;;4.60;99.90;;;;;;5035691;28;20061;-71
2020/12/06 03:25:09;;;;;;;16.20;9.13;;;4.60;99.90;;;;;;5033515;28;20048;-71
2020/12/06 03:27:39;;;;;;;15.80;9.00;;;4.70;99.90;;;;;;5036874;28;20470;-71
2020/12/06 03:30:08;;;;;;;16.70;9.55;;;4.70;99.90;;;;;;5032908;28;20036;-71
2020/12/06 03:32:33;;;;;;;14.57;9.25;;;4.70;99.90;;;;;;5032145;28;20513;-71
2020/12/06 03:34:59;;;;;;;20.83;11.52;;;4.70;99.90;;;;;;5031986;28;20061;-71
2020/12/06 03:37:31;;;;;;;15.55;9.18;;;4.70;99.90;;;;;;5034200;28;20037;-71
2020/12/06 03:39:59;;;;;;;11.18;6.20;;;4.80;99.90;;;;;;5035354;28;20075;-71
2020/12/06 03:42:27;;;;;;;13.65;8.50;;;4.80;99.90;;;;;;5034969;28;20075;-71
2020/12/06 03:44:52;;;;;;;22.83;12.80;;;4.80;99.90;;;;;;5033935;28;20076;-71
2020/12/06 03:47:18;;;;;;;19.80;11.35;;;4.80;99.90;;;;;;5031545;28;20028;-71
2020/12/06 03:49:46;;;;;;;22.10;11.98;;;4.80;99.90;;;;;;5051407;28;20033;-71
2020/12/06 03:52:17;;;;;;;22.27;13.10;;;4.80;99.90;;;;;;5033963;28;20030;-71
2020/12/06 03:54:42;;;;;;;30.35;14.57;;;4.70;99.90;;;;;;5037732;28;20045;-71
2020/12/06 03:57:08;;;;;;;23.63;13.18;;;4.70;99.90;;;;;;5032094;28;20022;-71
2020/12/06 03:59:34;;;;;;;23.20;12.88;;;4.60;99.90;;;;;;5031597;28;20480;-71
2020/12/06 04:01:59;;;;;;;24.13;12.85;;;4.60;99.90;;;;;;5035639;28;20485;-71
2020/12/06 04:04:29;;;;;;;24.92;13.70;;;4.60;99.90;;;;;;5033245;28;20600;-71
2020/12/06 04:06:55;;;;;;;23.17;13.40;;;4.50;99.90;;;;;;5035415;28;20036;-71
2020/12/06 04:09:21;;;;;;;21.92;11.80;;;4.50;99.90;;;;;;5031644;28;20041;-71
2020/12/06 04:11:46;;;;;;;23.77;13.75;;;4.50;99.90;;;;;;5016835;28;20116;-71
2020/12/06 04:14:12;;;;;;;21.98;12.60;;;4.50;99.90;;;;;;5033696;28;20038;-71
2020/12/06 04:16:40;;;;;;;23.92;12.95;;;4.50;99.90;;;;;;5035698;28;20040;-71
2020/12/06 04:19:06;;;;;;;19.02;11.35;;;4.50;99.90;;;;;;5033846;28;20029;-71
2020/12/06 04:21:31;;;;;;;19.77;11.82;;;4.50;99.90;;;;;;5035201;28;20087;-71
2020/12/06 04:23:57;;;;;;;18.50;11.57;;;4.60;99.90;;;;;;5030740;28;20039;-71
2020/12/06 04:26:23;;;;;;;19.60;11.25;;;4.60;99.90;;;;;;5033911;28;20376;-71
2020/12/06 04:28:48;;;;;;;19.40;11.38;;;4.60;99.90;;;;;;5031677;28;20077;-71
2020/12/06 04:31:14;;;;;;;20.35;12.00;;;4.60;99.90;;;;;;5031837;28;20025;-71
2020/12/06 04:33:42;;;;;;;16.80;10.95;;;4.70;99.90;;;;;;5033222;28;20108;-71
2020/12/06 04:36:12;;;;;;;18.75;10.60;;;4.70;99.90;;;;;;5034880;28;20028;-71
2020/12/06 04:38:37;;;;;;;17.73;10.95;;;4.70;99.90;;;;;;5034579;28;20045;-71
2020/12/06 04:41:03;;;;;;;18.33;11.23;;;4.80;99.90;;;;;;5033618;28;20135;-71
2020/12/06 04:43:32;;;;;;;19.42;11.48;;;4.70;99.90;;;;;;5026018;28;20029;-71
2020/12/06 04:45:57;;;;;;;20.02;11.77;;;4.80;99.90;;;;;;5033257;28;20364;-71
2020/12/06 04:49:07;;;;;;;21.33;11.65;;;4.70;99.90;;;;;;5032220;28;20030;-71
2020/12/06 04:51:45;;;;;;;17.95;11.07;;;4.70;99.90;;;;;;5032451;28;20037;-71
2020/12/06 04:54:11;;;;;;;18.10;10.02;;;4.60;99.90;;;;;;5032788;28;20036;-71
2020/12/06 04:56:37;;;;;;;18.00;10.88;;;4.70;99.90;;;;;;5030445;28;20021;-71
2020/12/06 04:59:03;;;;;;;15.90;9.98;;;4.70;99.90;;;;;;5030915;28;20442;-71
2020/12/06 05:01:36;;;;;;;17.75;10.95;;;4.70;99.90;;;;;;5030481;28;20048;-71
2020/12/06 05:04:11;;;;;;;18.50;11.38;;;4.80;99.90;;;;;;5037634;28;20117;-71
2020/12/06 05:06:43;;;;;;;21.48;12.07;;;4.80;99.90;;;;;;5034676;28;20056;-71
2020/12/06 05:09:10;;;;;;;23.67;12.70;;;4.70;99.90;;;;;;5030151;28;20044;-74
2020/12/06 05:11:36;;;;;;;24.83;12.90;;;4.70;99.90;;;;;;5020236;28;20032;-71
2020/12/06 05:14:08;;;;;;;26.48;14.25;;;4.70;99.90;;;;;;5030496;28;20026;-71
2020/12/06 05:16:36;;;;;;;18.10;9.38;;;4.70;99.90;;;;;;5051236;28;20025;-71
2020/12/06 05:19:05;;;;;;;29.02;14.25;;;4.60;99.90;;;;;;5030192;28;20034;-71
2020/12/06 05:21:40;;;;;;;28.77;14.77;;;4.50;99.90;;;;;;5035464;28;20371;-71
2020/12/06 05:24:08;;;;;;;27.50;14.65;;;4.60;99.90;;;;;;5031635;28;20040;-71
2020/12/06 05:26:34;;;;;;;29.52;15.60;;;4.50;99.90;;;;;;5016664;28;20039;-71
2020/12/06 05:29:06;;;;;;;27.67;14.23;;;4.50;99.90;;;;;;5031386;28;20116;-71
2020/12/06 05:31:32;;;;;;;25.85;14.45;;;4.50;99.90;;;;;;5033079;28;20026;-71
2020/12/06 05:33:57;;;;;;;23.73;14.43;;;4.50;99.90;;;;;;5030992;28;20103;-72
2020/12/06 05:36:23;;;;;;;25.20;14.40;;;4.50;99.90;;;;;;5034761;28;20030;-71
2020/12/06 05:38:49;;;;;;;28.80;15.57;;;4.50;99.90;;;;;;5028576;28;20054;-71
2020/12/06 05:41:17;;;;;;;27.40;15.32;;;4.50;99.90;;;;;;5047514;28;20083;-71
2020/12/06 05:43:43;;;;;;;28.90;15.43;;;4.40;99.90;;;;;;5028088;28;20507;-72
2020/12/06 05:46:10;;;;;;;31.67;16.25;;;4.40;99.90;;;;;;5030916;28;20033;-71
2020/12/06 05:48:36;;;;;;;26.10;14.93;;;4.40;99.90;;;;;;5036541;28;20032;-71
2020/12/06 05:51:04;;;;;;;28.58;15.95;;;4.40;99.90;;;;;;5029944;28;20078;-71
2020/12/06 05:53:30;;;;;;;37.22;17.48;;;4.50;99.90;;;;;;5030172;28;21827;-72
2020/12/06 05:56:20;;;;;;;31.55;16.83;;;4.50;99.90;;;;;;5036328;28;20017;-71
2020/12/06 05:58:47;;;;;;;31.42;17.17;;;4.50;99.90;;;;;;5032122;28;20450;-71
2020/12/06 06:01:14;;;;;;;29.38;16.90;;;4.40;99.90;;;;;;5031923;28;20129;-71
2020/12/06 06:03:48;;;;;;;30.67;17.33;;;4.40;99.90;;;;;;5031548;28;20064;-71
2020/12/06 06:06:26;;;;;;;30.60;17.15;;;4.40;99.90;;;;;;5030413;28;20022;-71
2020/12/06 06:08:53;;;;;;;30.73;16.80;;;4.40;99.90;;;;;;5029182;28;20098;-72
2020/12/06 06:11:24;;;;;;;34.05;18.23;;;4.30;99.90;;;;;;5037125;28;20037;-71
2020/12/06 06:13:56;;;;;;;30.77;17.08;;;4.30;99.90;;;;;;5026869;28;20021;-71
2020/12/06 06:16:23;;;;;;;31.58;16.77;;;4.40;99.90;;;;;;5030759;28;20040;-71
2020/12/06 06:18:52;;;;;;;32.38;17.42;;;4.40;99.90;;;;;;5026480;28;20048;-72
2020/12/06 06:21:20;;;;;;;31.60;17.35;;;4.30;99.90;;;;;;5021354;28;20104;-71
2020/12/06 06:23:46;;;;;;;30.08;17.02;;;4.30;99.90;;;;;;5030439;28;20064;-72
2020/12/06 06:26:15;;;;;;;31.15;16.75;;;4.30;99.90;;;;;;5009994;28;20614;-72
2020/12/06 06:28:40;;;;;;;30.10;16.95;;;4.30;99.90;;;;;;5005540;28;20148;-72
2020/12/06 06:31:08;;;;;;;35.40;18.45;;;4.30;99.90;;;;;;5031416;28;20180;-71
2020/12/06 06:33:34;;;;;;;36.95;19.35;;;4.30;99.90;;;;;;5049098;28;20033;-71
2020/12/06 06:36:02;;;;;;;34.78;18.65;;;4.20;99.90;;;;;;5033123;28;20028;-71
2020/12/06 06:38:30;;;;;;;33.45;17.75;;;4.30;99.90;;;;;;5030783;28;20102;-71
2020/12/06 06:40:57;;;;;;;34.28;18.05;;;4.30;99.90;;;;;;5032733;28;20040;-71
2020/12/06 06:43:27;;;;;;;34.63;18.13;;;4.30;99.90;;;;;;5026497;28;20037;-72
2020/12/06 06:45:55;;;;;;;29.65;16.25;;;4.20;99.90;;;;;;5032885;28;20057;-71
2020/12/06 06:48:21;;;;;;;36.83;19.63;;;4.20;99.90;;;;;;5027477;28;20056;-71
2020/12/06 06:50:49;;;;;;;38.10;19.35;;;4.30;99.90;;;;;;5030139;28;20064;-72
2020/12/06 06:53:19;;;;;;;30.45;16.55;;;4.30;99.90;;;;;;5029769;28;20030;-71
2020/12/06 06:55:57;;;;;;;34.95;18.40;;;4.30;99.90;;;;;;5033975;28;20021;-71
2020/12/06 06:58:25;;;;;;;34.83;19.25;;;4.30;99.90;;;;;;5044380;28;20034;-71
2020/12/06 07:00:51;;;;;;;30.58;16.88;;;4.30;99.90;;;;;;5048876;28;20037;-71
2020/12/06 07:03:19;;;;;;;28.83;15.98;;;4.30;99.90;;;;;;5032493;28;20413;-71
2020/12/06 07:05:45;;;;;;;32.70;17.05;;;4.30;99.90;;;;;;5032859;28;20025;-71
2020/12/06 07:08:16;;;;;;;32.03;17.40;;;4.30;99.90;;;;;;5013906;28;20111;-71
2020/12/06 07:10:42;;;;;;;28.13;15.57;;;4.30;99.90;;;;;;5030418;28;20087;-71
2020/12/06 07:13:08;;;;;;;30.70;16.52;;;4.40;99.90;;;;;;5014584;28;20044;-71
2020/12/06 07:15:34;;;;;;;29.73;17.40;;;4.40;99.90;;;;;;5032110;28;20025;-71
2020/12/06 07:18:00;;;;;;;27.17;15.30;;;4.40;99.90;;;;;;5030402;28;20398;-71
2020/12/06 07:20:26;;;;;;;27.67;14.85;;;4.40;99.90;;;;;;5011313;28;20037;-72
2020/12/06 07:22:55;;;;;;;31.40;16.75;;;4.40;99.90;;;;;;5034148;28;20028;-72
2020/12/06 07:25:21;;;;;;;30.65;15.98;;;4.50;99.90;;;;;;5032482;28;20034;-71
2020/12/06 07:27:49;;;;;;;31.10;16.42;;;4.40;99.90;;;;;;5042748;28;20050;-71
2020/12/06 07:30:16;;;;;;;27.55;15.18;;;4.50;99.90;;;;;;5034748;28;20397;-72
2020/12/06 07:32:44;;;;;;;28.88;15.18;;;4.50;99.90;;;;;;5032196;28;20014;-72
2020/12/06 07:35:13;;;;;;;30.48;15.88;;;4.50;99.90;;;;;;5033193;28;20104;-72
2020/12/06 07:37:41;;;;;;;35.15;16.52;;;4.50;99.90;;;;;;5035820;28;20021;-71
2020/12/06 07:40:08;;;;;;;27.02;14.30;;;4.50;99.90;;;;;;5017990;28;20450;-71
2020/12/06 07:42:34;;;;;;;29.80;16.75;;;4.50;99.90;;;;;;5035070;28;20025;-72
2020/12/06 07:45:00;;;;;;;28.92;15.60;;;4.40;99.90;;;;;;5031889;28;20040;-71
2020/12/06 07:47:26;;;;;;;29.65;15.05;;;4.50;99.90;;;;;;5033381;28;20104;-71
2020/12/06 07:49:55;;;;;;;31.60;16.27;;;4.40;99.90;;;;;;5032233;28;20025;-71
2020/12/06 07:52:21;;;;;;;29.30;15.52;;;4.40;99.90;;;;;;5036256;28;20029;-72
2020/12/06 07:54:55;;;;;;;32.00;15.82;;;4.40;99.90;;;;;;5034038;28;20025;-71
2020/12/06 07:57:45;;;;;;;29.55;15.35;;;4.40;99.90;;;;;;5017879;28;20497;-71
2020/12/06 08:00:11;;;;;;;28.70;14.80;;;4.50;99.90;;;;;;5036636;28;20494;-71
2020/12/06 08:02:38;;;;;;;28.83;15.57;;;4.40;99.90;;;;;;5033679;28;20043;-72
2020/12/06 08:05:07;;;;;;;24.73;13.63;;;4.50;99.90;;;;;;5004237;28;20022;-71
2020/12/06 08:07:41;;;;;;;23.85;13.15;;;4.50;99.90;;;;;;5037426;28;20211;-71
2020/12/06 08:10:10;;;;;;;28.17;15.07;;;4.50;99.90;;;;;;5032207;28;20042;-71
2020/12/06 08:12:43;;;;;;;26.92;14.50;;;4.60;99.90;;;;;;5035905;28;20041;-71
2020/12/06 08:15:10;;;;;;;26.88;15.40;;;4.60;99.90;;;;;;5033588;28;20626;-72
2020/12/06 08:17:49;;;;;;;24.85;13.63;;;4.60;99.90;;;;;;5031923;28;20098;-71
2020/12/06 08:20:16;;;;;;;28.52;14.98;;;4.70;99.90;;;;;;5034393;28;20736;-71
2020/12/06 08:22:52;;;;;;;27.35;15.27;;;4.60;99.90;;;;;;5033733;28;20040;-72
2020/12/06 08:25:24;;;;;;;26.02;14.38;;;4.70;99.90;;;;;;5033321;28;20036;-72
2020/12/06 08:27:50;;;;;;;;;;;4.70;99.90;;;;;;5050690;28;20034;-72
2020/12/06 08:30:17;;;;;;;28.20;14.30;;;4.70;99.90;;;;;;5033473;28;19916;-72
2020/12/06 08:32:59;;;;;;;24.83;13.95;;;4.70;99.90;;;;;;5015846;28;20128;-72
2020/12/06 08:35:46;;;;;;;25.52;14.13;;;4.70;99.90;;;;;;5033580;28;20040;-72
2020/12/06 08:38:18;;;;;;;28.90;15.00;;;4.70;99.90;;;;;;5033982;28;20044;-72
2020/12/06 08:41:07;;;;;;;32.42;15.90;;;4.70;99.90;;;;;;5031609;28;20087;-72
2020/12/06 08:44:01;;;;;;;26.13;14.32;;;4.80;99.90;;;;;;5033580;28;20040;-72
2020/12/06 08:46:28;;;;;;;25.92;14.00;;;4.70;99.90;;;;;;5031451;28;20051;-72
2020/12/06 08:48:56;;;;;;;27.63;14.52;;;4.70;99.90;;;;;;5017138;28;20496;-72
2020/12/06 08:51:34;;;;;;;25.83;14.65;;;4.80;99.90;;;;;;5032250;28;20028;-72
2020/12/06 08:54:01;;;;;;;27.38;14.55;;;4.80;99.90;;;;;;5033370;28;20036;-72
2020/12/06 08:56:33;;;;;;;24.52;14.40;;;4.80;99.90;;;;;;5031432;28;20041;-72
2020/12/06 08:59:02;;;;;;;24.92;13.95;;;4.80;99.90;;;;;;5030348;28;20024;-72
2020/12/06 09:01:30;;;;;;;25.52;14.50;;;4.90;99.90;;;;;;5030470;28;20063;-72
2020/12/06 09:03:55;;;;;;;27.65;15.38;;;4.90;99.90;;;;;;5036690;28;20099;-72
2020/12/06 09:06:23;;;;;;;25.13;14.23;;;4.90;99.90;;;;;;5021370;28;20601;-72
2020/12/06 09:08:49;;;;;;;25.55;14.75;;;4.90;99.90;;;;;;5032553;28;20033;-72
2020/12/06 09:11:18;;;;;;;24.27;14.35;;;5.00;99.90;;;;;;5031835;28;20036;-72
2020/12/06 09:13:44;;;;;;;24.88;13.80;;;5.00;99.90;;;;;;5032204;28;20108;-72
2020/12/06 09:16:10;;;;;;;23.83;13.95;;;5.00;99.90;;;;;;5015982;28;20112;-72
2020/12/06 09:18:36;;;;;;;25.73;14.95;;;5.00;99.90;;;;;;5029882;28;20032;-72
2020/12/06 09:21:04;;;;;;;24.58;14.00;;;5.10;99.90;;;;;;5027187;28;20037;-72
2020/12/06 09:23:30;;;;;;;23.50;12.93;;;5.10;99.90;;;;;;5028273;28;20051;-72
2020/12/06 09:26:00;;;;;;;23.48;13.77;;;5.10;99.90;;;;;;5033357;28;20037;-72
2020/12/06 09:28:26;;;;;;;22.05;13.20;;;5.10;99.90;;;;;;5031581;28;20037;-72
2020/12/06 09:30:53;;;;;;;21.60;13.00;;;5.20;99.90;;;;;;5034039;28;20045;-72
2020/12/06 09:33:24;;;;;;;24.08;12.43;;;5.20;99.90;;;;;;5032406;28;20057;-72
2020/12/06 09:35:49;;;;;;;28.30;14.32;;;5.20;99.90;;;;;;5029765;28;20100;-72
2020/12/06 09:38:18;;;;;;;40.13;22.20;;;5.20;99.90;;;;;;5032735;28;20031;-72
2020/12/06 09:40:43;;;;;;;28.23;16.10;;;5.20;99.90;;;;;;5030978;28;20036;-72
2020/12/06 09:43:09;;;;;;;30.85;16.77;;;5.20;99.90;;;;;;5032844;28;20032;-73
2020/12/06 09:45:37;;;;;;;27.63;14.68;;;5.20;99.90;;;;;;5032325;28;20090;-72
2020/12/06 09:48:03;;;;;;;27.60;14.20;;;5.20;99.90;;;;;;5033071;28;20466;-72
2020/12/06 09:50:29;;;;;;;23.60;13.85;;;5.20;99.90;;;;;;5017647;28;20088;-72
2020/12/06 09:52:54;;;;;;;21.67;12.63;;;5.20;99.90;;;;;;5032486;28;20109;-72
2020/12/06 09:55:23;;;;;;;22.85;13.48;;;5.20;99.90;;;;;;5025638;28;20509;-72
2020/12/06 09:57:51;;;;;;;27.00;14.43;;;5.20;99.90;;;;;;5027930;28;20359;-72
2020/12/06 10:00:19;;;;;;;29.05;16.17;;;5.30;99.90;;;;;;5028120;28;20044;-72
2020/12/06 10:02:44;;;;;;;26.15;14.85;;;5.20;99.90;;;;;;5029953;28;20037;-72
2020/12/06 10:05:12;;;;;;;26.52;14.35;;;5.30;99.90;;;;;;5029812;28;20036;-73
2020/12/06 10:07:43;;;;;;;27.92;14.75;;;5.30;99.90;;;;;;5028773;28;20040;-73
2020/12/06 10:10:11;;;;;;;26.85;14.98;;;5.30;99.90;;;;;;5030863;28;20614;-72
2020/12/06 10:12:36;;;;;;;26.58;14.55;;;5.30;99.90;;;;;;5027638;28;20109;-72
2020/12/06 10:15:03;;;;;;;28.15;15.48;;;5.30;99.90;;;;;;5029152;28;20121;-72
2020/12/06 10:17:29;;;;;;;28.50;15.05;;;5.30;99.90;;;;;;5030288;28;20025;-72
2020/12/06 10:19:57;;;;;;;35.45;17.63;;;5.30;99.90;;;;;;5030651;28;20160;-72
2020/12/06 10:22:23;;;;;;;32.08;15.70;;;5.30;99.90;;;;;;5028412;28;20031;-72
2020/12/06 10:24:51;;;;;;;31.10;15.20;;;5.40;99.90;;;;;;5025436;28;20354;-73
2020/12/06 10:27:17;;;;;;;34.90;16.42;;;5.40;99.90;;;;;;5032919;28;20108;-72
2020/12/06 10:29:45;;;;;;;35.42;17.70;;;5.40;99.90;;;;;;5028160;28;20117;-72
2020/12/06 10:32:10;;;;;;;32.97;16.70;;;5.40;99.90;;;;;;5024949;28;20032;-73
2020/12/06 10:34:39;;;;;;;36.88;18.38;;;5.40;99.90;;;;;;5028915;28;20034;-72
2020/12/06 10:37:07;;;;;;;37.15;18.23;;;5.40;99.90;;;;;;5026728;28;20025;-72
2020/12/06 10:39:32;;;;;;;39.38;18.30;;;5.40;99.90;;;;;;5029021;28;20030;-72
2020/12/06 10:41:58;;;;;;;34.15;17.52;;;5.40;99.90;;;;;;5030288;28;20340;-72
2020/12/06 10:44:24;;;;;;;35.30;17.80;;;5.50;99.90;;;;;;5030290;28;20037;-72
2020/12/06 10:46:53;;;;;;;34.92;17.88;;;5.50;99.90;;;;;;5011853;28;20044;-72
2020/12/06 10:49:23;;;;;;;36.58;17.15;;;5.50;99.90;;;;;;5027714;28;20094;-72
2020/12/06 10:51:51;;;;;;;30.52;16.52;;;5.50;99.90;;;;;;5029081;28;20064;-72
2020/12/06 10:54:16;;;;;;;32.50;16.70;;;5.50;99.90;;;;;;5024448;28;20013;-72
2020/12/06 10:56:42;;;;;;;31.92;16.73;;;5.50;99.90;;;;;;5029265;28;20054;-72
2020/12/06 10:59:08;;;;;;;30.88;16.83;;;5.60;99.90;;;;;;5028379;28;20350;-72
2020/12/06 11:01:34;;;;;;;34.53;17.77;;;5.60;99.90;;;;;;5030992;28;20029;-72
2020/12/06 11:04:03;;;;;;;35.97;17.55;;;5.60;99.90;;;;;;5018047;28;20363;-72
2020/12/06 11:06:29;;;;;;;33.63;16.77;;;5.60;99.90;;;;;;5032090;28;20026;-72
2020/12/06 11:08:57;;;;;;;34.13;16.42;;;5.50;99.90;;;;;;5020915;28;20044;-72
2020/12/06 11:11:23;;;;;;;28.08;15.35;;;5.50;99.90;;;;;;5039062;28;20437;-72
2020/12/06 11:13:49;;;;;;;29.80;15.32;;;5.50;99.90;;;;;;5036580;28;20048;-72
2020/12/06 11:16:18;;;;;;;24.55;13.90;;;5.50;99.90;;;;;;5031058;28;20485;-72
2020/12/06 11:18:47;;;;;;;32.33;15.75;;;5.50;99.90;;;;;;5034101;28;20025;-72
2020/12/06 11:21:22;;;;;;;29.27;15.48;;;5.60;99.90;;;;;;4336609;28;10000542;-71
2020/12/06 11:23:54;;;;;;;25.83;13.57;;;5.50;99.90;;;;;;5029874;28;20059;-71
2020/12/06 11:26:21;;;;;;;28.55;14.15;;;5.60;99.90;;;;;;5030800;28;20033;-72
2020/12/06 11:28:46;;;;;;;24.98;14.30;;;5.50;99.90;;;;;;5002273;28;20094;-72
2020/12/06 11:31:12;;;;;;;31.98;15.95;;;5.60;99.90;;;;;;5016358;28;20029;-72
2020/12/06 11:33:38;;;;;;;34.95;16.20;;;5.60;99.90;;;;;;5024121;28;20502;-72
2020/12/06 11:36:03;;;;;;;32.80;15.90;;;5.60;99.90;;;;;;5033490;28;20033;-71
2020/12/06 11:38:30;;;;;;;27.00;14.88;;;5.50;99.90;;;;;;5029235;28;20033;-72
2020/12/06 11:40:55;;;;;;;27.70;14.00;;;5.50;99.90;;;;;;5014670;28;20037;-72
2020/12/06 11:43:21;;;;;;;25.98;13.90;;;5.50;99.90;;;;;;5030483;28;20469;-72
2020/12/06 11:45:47;;;;;;;30.55;15.40;;;5.60;99.90;;;;;;5029276;28;20025;-72
2020/12/06 11:48:13;;;;;;;29.88;14.50;;;5.60;99.90;;;;;;5028693;28;20117;-72
2020/12/06 11:50:38;;;;;;;28.35;14.77;;;5.60;99.90;;;;;;5030130;28;20033;-71
2020/12/06 11:53:06;;;;;;;31.45;16.30;;;5.60;99.90;;;;;;5031277;28;20025;-72
2020/12/06 11:55:34;;;;;;;26.85;14.65;;;5.60;99.90;;;;;;5026286;28;20044;-72
2020/12/06 11:58:02;;;;;;;28.55;14.52;;;5.60;99.90;;;;;;5028966;28;20489;-72
2020/12/06 12:00:30;;;;;;;32.03;16.45;;;5.60;99.90;;;;;;5029661;28;20364;-71
2020/12/06 12:02:56;;;;;;;26.35;13.85;;;5.60;99.90;;;;;;5031994;28;20119;-72
2020/12/06 12:05:23;;;;;;;27.77;14.25;;;5.60;99.90;;;;;;5031152;28;20108;-72
2020/12/06 12:07:49;;;;;;;29.33;14.95;;;5.60;99.90;;;;;;5028929;28;20041;-72
2020/12/06 12:10:19;;;;;;;23.13;13.35;;;5.70;99.90;;;;;;5026620;28;20026;-72
2020/12/06 12:12:47;;;;;;;27.90;14.98;;;5.70;99.90;;;;;;5033985;28;20021;-72
2020/12/06 12:15:16;;;;;;;26.67;14.35;;;5.70;99.90;;;;;;5029214;28;20387;-71
2020/12/06 12:17:44;;;;;;;24.95;13.75;;;5.70;99.90;;;;;;5030801;28;20601;-72
2020/12/06 12:20:12;;;;;;;28.00;14.73;;;5.70;99.90;;;;;;5029843;28;20030;-72
2020/12/06 12:22:40;;;;;;;30.65;15.88;;;5.70;99.90;;;;;;5026752;28;20211;-72
2020/12/06 12:25:05;;;;;;;30.02;16.77;;;5.70;99.90;;;;;;5024065;28;20033;-71
2020/12/06 12:27:34;;;;;;;30.50;16.77;;;5.70;99.90;;;;;;5029259;28;20056;-72
2020/12/06 12:30:00;;;;;;;28.95;15.55;;;5.70;99.90;;;;;;5035885;28;20033;-72
2020/12/06 12:32:28;;;;;;;33.33;17.33;;;5.70;99.90;;;;;;5028541;28;20024;-73
2020/12/06 12:34:54;;;;;;;30.65;16.20;;;5.70;99.90;;;;;;5026466;28;20571;-73
2020/12/06 12:37:19;;;;;;;30.40;15.82;;;5.70;99.90;;;;;;5029057;28;20080;-72
2020/12/06 12:39:45;;;;;;;35.10;17.20;;;5.80;99.90;;;;;;5032477;28;20703;-71
2020/12/06 12:42:13;;;;;;;32.97;16.83;;;5.80;99.90;;;;;;5017937;28;20143;-71